createdAt,value
2023-05-05T00:02:28.384Z,13.44
2023-05-05T00:04:58.768Z,13.41
2023-05-05T00:07:29.023Z,13.38
2023-05-05T00:09:59.177Z,13.31
2023-05-05T00:12:29.410Z,13.31
2023-05-05T00:14:59.847Z,13.27
2023-05-05T00:17:30.051Z,13.22
2023-05-05T00:20:00.925Z,13.18
2023-05-05T00:22:31.250Z,13.14
2023-05-05T00:25:01.479Z,13.11
2023-05-05T00:27:31.650Z,13.07
2023-05-05T00:30:01.853Z,13.05
2023-05-05T00:32:32.103Z,13.05
2023-05-05T00:35:02.342Z,13.02
2023-05-05T00:37:32.537Z,13.07
2023-05-05T00:40:03.908Z,13.09
2023-05-05T00:42:42.483Z,13.11
2023-05-05T00:45:14.983Z,13.14
2023-05-05T00:47:46.257Z,13.18
2023-05-05T00:50:23.531Z,13.22
2023-05-05T00:52:56.444Z,13.27
2023-05-05T00:55:26.102Z,13.30
2023-05-05T00:57:56.618Z,13.33
2023-05-05T01:00:27.110Z,13.37
2023-05-05T01:02:58.771Z,13.40
2023-05-05T01:05:31.892Z,13.38
2023-05-05T01:08:11.679Z,13.42
2023-05-05T01:10:44.168Z,13.44
2023-05-05T01:13:25.428Z,13.44
2023-05-05T01:16:02.463Z,13.43
2023-05-05T01:18:36.642Z,13.41
2023-05-05T01:21:10.963Z,13.38
2023-05-05T01:23:54.631Z,13.34
2023-05-05T01:26:42.661Z,13.29
2023-05-05T01:29:33.441Z,13.22
2023-05-05T01:32:06.496Z,13.15
2023-05-05T01:34:43.219Z,13.03
2023-05-05T01:37:15.490Z,12.98
2023-05-05T01:39:46.053Z,12.91
2023-05-05T01:42:18.625Z,12.84
2023-05-05T01:44:50.132Z,12.78
2023-05-05T01:47:22.668Z,12.74
2023-05-05T01:49:53.469Z,12.69
2023-05-05T01:52:24.909Z,12.66
2023-05-05T01:54:55.898Z,12.64
2023-05-05T01:57:27.148Z,12.63
2023-05-05T01:59:57.833Z,12.61
2023-05-05T02:02:28.381Z,12.60
2023-05-05T02:04:59.081Z,12.57
2023-05-05T02:07:29.777Z,12.55
2023-05-05T02:10:00.569Z,12.52
2023-05-05T02:12:31.608Z,12.50
2023-05-05T02:15:03.988Z,12.47
2023-05-05T02:17:34.369Z,12.46
2023-05-05T02:20:06.184Z,12.44
2023-05-05T02:22:36.539Z,12.41
2023-05-05T02:25:08.601Z,12.41
2023-05-05T02:27:40.105Z,12.39
2023-05-05T02:30:12.504Z,12.35
2023-05-05T02:32:49.042Z,12.33
2023-05-05T02:35:22.073Z,12.31
2023-05-05T02:37:59.578Z,12.28
2023-05-05T02:40:32.975Z,12.26
2023-05-05T02:43:10.062Z,12.24
2023-05-05T02:45:40.475Z,12.24
2023-05-05T02:48:12.866Z,12.24
2023-05-05T02:50:43.205Z,12.25
2023-05-05T02:53:30.364Z,12.25
2023-05-05T02:56:09.361Z,12.27
2023-05-05T02:58:50.105Z,12.28
2023-05-05T03:01:29.146Z,12.30
2023-05-05T03:04:07.428Z,12.31
2023-05-05T03:06:43.728Z,12.29
2023-05-05T03:09:21.472Z,12.34
2023-05-05T03:11:55.956Z,12.35
2023-05-05T03:14:27.270Z,12.38
2023-05-05T03:16:58.293Z,12.41
2023-05-05T03:19:28.821Z,12.46
2023-05-05T03:22:02.015Z,12.45
2023-05-05T03:24:32.473Z,12.49
2023-05-05T03:27:06.990Z,12.50
2023-05-05T03:29:40.262Z,12.51
2023-05-05T03:32:14.035Z,12.50
2023-05-05T03:34:44.513Z,12.49
2023-05-05T03:37:14.807Z,12.47
2023-05-05T03:39:45.370Z,12.45
2023-05-05T03:42:15.902Z,12.43
2023-05-05T03:44:46.136Z,12.40
2023-05-05T03:47:17.203Z,12.38
2023-05-05T03:49:48.367Z,12.32
2023-05-05T03:52:18.827Z,12.34
2023-05-05T03:54:49.121Z,12.33
2023-05-05T03:57:19.298Z,12.31
2023-05-05T03:59:49.719Z,12.29
2023-05-05T04:02:20.142Z,12.25
2023-05-05T04:04:50.669Z,12.20
2023-05-05T04:07:22.751Z,12.15
2023-05-05T04:09:53.478Z,12.12
2023-05-05T04:12:23.836Z,12.07
2023-05-05T04:14:54.433Z,12.03
2023-05-05T04:17:25.268Z,11.98
2023-05-05T04:19:55.660Z,11.95
2023-05-05T04:22:26.183Z,11.93
2023-05-05T04:24:57.326Z,11.97
2023-05-05T04:27:30.451Z,12.02
2023-05-05T04:30:01.429Z,12.05
2023-05-05T04:32:33.565Z,12.09
2023-05-05T04:35:04.989Z,12.21
2023-05-05T04:37:35.820Z,12.44
2023-05-05T04:40:09.235Z,12.71
2023-05-05T04:42:39.796Z,13.00
2023-05-05T04:45:11.847Z,13.29
2023-05-05T04:47:42.237Z,13.56
2023-05-05T04:50:13.798Z,13.80
2023-05-05T04:52:44.025Z,14.05
2023-05-05T04:55:14.784Z,14.27
2023-05-05T04:57:45.045Z,14.50
2023-05-05T05:00:17.037Z,14.70
2023-05-05T05:02:47.418Z,14.87
2023-05-05T05:05:17.962Z,15.02
2023-05-05T05:07:48.470Z,15.19
2023-05-05T05:10:19.066Z,15.29
2023-05-05T05:12:51.153Z,15.54
2023-05-05T05:15:21.402Z,15.78
2023-05-05T05:17:51.896Z,16.17
2023-05-05T05:20:22.508Z,16.59
2023-05-05T05:22:53.259Z,17.03
2023-05-05T05:25:24.155Z,17.47
2023-05-05T05:28:08.392Z,17.85
2023-05-05T05:30:42.699Z,18.23
2023-05-05T05:33:13.392Z,18.48
2023-05-05T05:35:44.178Z,18.54
2023-05-05T05:38:15.142Z,18.57
2023-05-05T05:40:45.736Z,18.57
2023-05-05T05:43:16.561Z,18.55
2023-05-05T05:45:46.940Z,18.49
2023-05-05T05:48:17.572Z,18.37
2023-05-05T05:50:47.985Z,18.32
2023-05-05T05:53:18.205Z,18.24
2023-05-05T05:55:49.560Z,18.24
2023-05-05T05:58:19.865Z,18.27
2023-05-05T06:00:51.543Z,18.31
2023-05-05T06:03:22.061Z,18.24
2023-05-05T06:05:52.328Z,18.29
2023-05-05T06:08:24.799Z,18.35
2023-05-05T06:10:56.141Z,18.52
2023-05-05T06:13:27.119Z,18.77
2023-05-05T06:15:58.269Z,19.10
2023-05-05T06:18:28.688Z,19.36
2023-05-05T06:21:00.274Z,19.56
2023-05-05T06:23:31.296Z,19.73
2023-05-05T06:26:05.849Z,19.91
2023-05-05T06:28:36.041Z,20.10
2023-05-05T06:31:06.330Z,20.25
2023-05-05T06:33:36.791Z,20.22
2023-05-05T06:36:09.441Z,20.17
2023-05-05T06:38:39.755Z,20.19
2023-05-05T06:41:10.037Z,20.17
2023-05-05T06:43:42.906Z,20.26
2023-05-05T06:46:15.236Z,20.32
2023-05-05T06:48:46.122Z,20.35
2023-05-05T06:51:19.107Z,20.39
2023-05-05T06:53:49.539Z,20.52
2023-05-05T06:56:19.836Z,20.64
2023-05-05T06:58:50.479Z,20.70
2023-05-05T07:01:21.527Z,20.76
2023-05-05T07:03:52.331Z,20.81
2023-05-05T07:06:22.784Z,20.86
2023-05-05T07:08:53.511Z,21.02
2023-05-05T07:11:23.753Z,21.22
2023-05-05T07:13:54.311Z,21.37
2023-05-05T07:16:24.757Z,21.47
2023-05-05T07:18:55.180Z,21.55
2023-05-05T07:21:26.979Z,21.74
2023-05-05T07:23:58.216Z,21.98
2023-05-05T07:26:32.529Z,22.12
2023-05-05T07:29:07.489Z,22.19
2023-05-05T07:31:37.936Z,22.21
2023-05-05T07:34:08.408Z,22.33
2023-05-05T07:36:38.706Z,22.44
2023-05-05T07:39:09.143Z,22.58
2023-05-05T07:41:39.665Z,22.74
2023-05-05T07:44:09.929Z,22.96
2023-05-05T07:46:40.483Z,23.15
2023-05-05T07:49:10.874Z,23.21
2023-05-05T07:51:41.107Z,23.23
2023-05-05T07:54:13.021Z,23.24
2023-05-05T07:56:43.356Z,23.16
2023-05-05T07:59:13.969Z,23.15
2023-05-05T08:01:44.313Z,23.26
2023-05-05T08:04:14.681Z,23.26
2023-05-05T08:06:45.669Z,23.33
2023-05-05T08:09:16.780Z,23.34
2023-05-05T08:11:46.914Z,23.34
2023-05-05T08:14:17.490Z,23.45
2023-05-05T08:16:47.965Z,23.54
2023-05-05T08:19:28.842Z,23.65
2023-05-05T08:22:01.561Z,23.82
2023-05-05T08:24:32.192Z,24.01
2023-05-05T08:27:02.626Z,24.08
2023-05-05T08:29:33.219Z,24.19
2023-05-05T08:32:03.444Z,24.18
2023-05-05T08:34:33.776Z,24.07
2023-05-05T08:37:03.953Z,23.98
2023-05-05T08:39:34.141Z,23.97
2023-05-05T08:42:05.392Z,23.90
2023-05-05T08:44:36.174Z,23.87
2023-05-05T08:47:07.147Z,24.10
2023-05-05T08:49:46.354Z,24.32
2023-05-05T08:52:19.206Z,24.59
2023-05-05T08:54:54.830Z,24.93
2023-05-05T08:57:29.136Z,25.27
2023-05-05T08:59:59.722Z,25.38
2023-05-05T09:02:31.230Z,25.43
2023-05-05T09:05:05.050Z,25.57
2023-05-05T09:07:36.356Z,25.53
2023-05-05T09:10:08.440Z,25.51
2023-05-05T09:12:41.355Z,25.67
2023-05-05T09:15:13.660Z,25.91
2023-05-05T09:17:44.525Z,26.10
2023-05-05T09:20:16.160Z,26.31
2023-05-05T09:22:49.093Z,26.56
2023-05-05T09:25:19.916Z,26.78
2023-05-05T09:27:51.002Z,26.56
2023-05-05T09:30:27.257Z,26.14
2023-05-05T09:32:57.591Z,26.02
2023-05-05T09:35:27.816Z,26.38
2023-05-05T09:37:58.028Z,26.59
2023-05-05T09:40:28.286Z,26.87
2023-05-05T09:43:04.399Z,27.10
2023-05-05T09:45:35.035Z,27.14
2023-05-05T09:48:06.240Z,27.34
2023-05-05T09:50:45.476Z,27.49
2023-05-05T09:53:16.086Z,27.48
2023-05-05T09:55:55.053Z,27.46
2023-05-05T09:58:26.434Z,27.53
2023-05-05T10:00:57.551Z,27.76
2023-05-05T10:03:27.966Z,27.97
2023-05-05T10:06:00.953Z,28.12
2023-05-05T10:08:34.174Z,28.21
2023-05-05T10:11:06.958Z,28.40
2023-05-05T10:13:41.795Z,28.57
2023-05-05T10:16:14.510Z,28.74
2023-05-05T10:18:46.280Z,28.80
2023-05-05T10:21:22.106Z,28.98
2023-05-05T10:24:02.108Z,29.23
2023-05-05T10:26:35.440Z,29.75
2023-05-05T10:29:12.080Z,30.22
2023-05-05T10:31:46.044Z,29.98
2023-05-05T10:34:22.446Z,29.27
2023-05-05T10:36:55.121Z,29.27
2023-05-05T10:39:26.648Z,29.78
2023-05-05T10:41:58.741Z,29.49
2023-05-05T10:44:29.926Z,29.33
2023-05-05T10:47:00.861Z,29.53
2023-05-05T10:49:39.320Z,29.86
2023-05-05T10:52:15.111Z,29.62
2023-05-05T10:54:48.497Z,29.70
2023-05-05T10:57:21.604Z,30.74
2023-05-05T10:59:51.926Z,31.64
2023-05-05T11:02:24.527Z,31.75
2023-05-05T11:05:08.491Z,32.07
2023-05-05T11:07:38.999Z,31.70
2023-05-05T11:10:10.711Z,31.49
2023-05-05T11:13:11.220Z,31.52
2023-05-05T11:15:41.867Z,31.30
2023-05-05T11:18:31.298Z,31.22
2023-05-05T11:21:18.107Z,31.95
2023-05-05T11:23:52.956Z,32.87
2023-05-05T11:26:52.507Z,33.91
2023-05-05T11:29:22.849Z,34.21
2023-05-05T11:32:13.091Z,33.74
2023-05-05T11:34:51.909Z,33.42
2023-05-05T11:37:25.168Z,33.58
2023-05-05T11:40:09.392Z,33.38
2023-05-05T11:42:39.814Z,33.83
2023-05-05T11:45:23.757Z,33.95
2023-05-05T11:47:54.999Z,34.72
2023-05-05T11:50:24.594Z,34.65
2023-05-05T11:52:55.174Z,35.27
2023-05-05T11:55:26.185Z,35.90
2023-05-05T11:57:56.584Z,36.67
2023-05-05T12:00:35.436Z,37.19
2023-05-05T12:03:06.427Z,37.63
2023-05-05T12:05:37.232Z,37.29
2023-05-05T12:08:07.845Z,35.58
2023-05-05T12:10:38.163Z,33.82
2023-05-05T12:13:20.383Z,32.36
2023-05-05T12:15:50.882Z,31.21
2023-05-05T12:18:21.765Z,30.48
2023-05-05T12:20:53.056Z,30.07
2023-05-05T12:23:23.648Z,30.27
2023-05-05T12:25:54.255Z,30.43
2023-05-05T12:28:24.695Z,29.71
2023-05-05T12:31:01.763Z,29.30
2023-05-05T12:33:32.329Z,28.72
2023-05-05T12:36:02.999Z,28.18
2023-05-05T12:38:33.446Z,27.86
2023-05-05T12:41:05.084Z,27.68
2023-05-05T12:43:36.337Z,27.51
2023-05-05T12:46:09.302Z,27.33
2023-05-05T12:48:46.350Z,28.12
2023-05-05T12:51:20.583Z,29.29
2023-05-05T12:54:02.270Z,29.56
2023-05-05T12:56:33.708Z,29.06
2023-05-05T12:59:04.725Z,30.04
2023-05-05T13:01:35.703Z,31.93
2023-05-05T13:04:13.937Z,32.75
2023-05-05T13:06:45.771Z,32.89
2023-05-05T13:09:26.860Z,31.66
2023-05-05T13:11:58.427Z,30.73
2023-05-05T13:14:27.152Z,31.39
2023-05-05T13:16:57.379Z,31.98
2023-05-05T13:19:28.004Z,31.77
2023-05-05T13:21:59.086Z,31.12
2023-05-05T13:24:42.254Z,30.59
2023-05-05T13:27:23.668Z,32.02
2023-05-05T13:29:54.107Z,31.84
2023-05-05T13:32:24.926Z,31.75
2023-05-05T13:34:55.156Z,32.07
2023-05-05T13:37:25.571Z,32.99
2023-05-05T13:39:59.166Z,33.70
2023-05-05T13:42:29.337Z,33.35
2023-05-05T13:44:59.581Z,32.11
2023-05-05T13:47:29.825Z,31.80
2023-05-05T13:50:00.172Z,31.19
2023-05-05T13:52:31.797Z,31.04
2023-05-05T13:55:03.263Z,30.71
2023-05-05T13:57:33.478Z,31.42
2023-05-05T14:00:04.283Z,31.61
2023-05-05T14:02:37.776Z,31.01
2023-05-05T14:05:10.263Z,30.32
2023-05-05T14:07:40.810Z,29.65
2023-05-05T14:10:12.177Z,29.03
2023-05-05T14:12:42.464Z,28.55
2023-05-05T14:15:13.402Z,28.15
2023-05-05T14:17:43.647Z,27.89
2023-05-05T14:20:15.987Z,27.63
2023-05-05T14:22:48.782Z,27.41
2023-05-05T14:25:19.802Z,27.25
2023-05-05T14:27:50.897Z,26.97
2023-05-05T14:30:21.216Z,26.90
2023-05-05T14:32:51.501Z,26.89
2023-05-05T14:35:22.123Z,26.89
2023-05-05T14:37:52.290Z,26.77
2023-05-05T14:40:22.735Z,26.52
2023-05-05T14:42:53.002Z,26.23
2023-05-05T14:45:23.317Z,25.95
2023-05-05T14:47:53.808Z,25.72
2023-05-05T14:50:24.522Z,25.41
2023-05-05T14:52:54.877Z,25.03
2023-05-05T14:55:26.033Z,24.71
2023-05-05T14:57:56.254Z,24.31
2023-05-05T15:00:26.896Z,23.92
2023-05-05T15:02:57.362Z,23.59
2023-05-05T15:05:27.959Z,23.30
2023-05-05T15:07:58.572Z,23.00
2023-05-05T15:10:28.787Z,22.69
2023-05-05T15:12:59.200Z,22.23
2023-05-05T15:15:29.542Z,21.28
2023-05-05T15:17:59.794Z,20.19
2023-05-05T15:20:30.677Z,19.23
2023-05-05T15:23:01.321Z,18.41
2023-05-05T15:25:31.826Z,17.71
2023-05-05T15:28:02.071Z,17.06
2023-05-05T15:30:32.676Z,16.45
2023-05-05T15:33:03.361Z,16.00
2023-05-05T15:35:33.678Z,15.69
2023-05-05T15:38:04.704Z,15.51
2023-05-05T15:40:36.264Z,15.38
2023-05-05T15:43:06.774Z,15.30
2023-05-05T15:45:38.351Z,15.28
2023-05-05T15:48:09.184Z,15.31
2023-05-05T15:50:39.345Z,15.36
2023-05-05T15:53:09.553Z,15.44
2023-05-05T15:55:40.161Z,15.50
2023-05-05T15:58:10.621Z,15.54
2023-05-05T16:00:41.621Z,15.55
2023-05-05T16:03:11.914Z,15.55
2023-05-05T16:05:42.851Z,15.53
2023-05-05T16:08:13.085Z,15.51
2023-05-05T16:10:43.275Z,15.46
2023-05-05T16:13:13.930Z,15.45
2023-05-05T16:15:44.678Z,15.51
2023-05-05T16:18:14.875Z,15.58
2023-05-05T16:20:45.204Z,15.66
2023-05-05T16:23:16.137Z,15.72
2023-05-05T16:25:46.424Z,15.77
2023-05-05T16:28:16.814Z,15.80
2023-05-05T16:30:47.619Z,15.85
2023-05-05T16:33:17.809Z,15.88
2023-05-05T16:35:48.123Z,15.90
2023-05-05T16:38:18.381Z,15.90
2023-05-05T16:40:48.574Z,15.90
2023-05-05T16:43:19.719Z,15.90
2023-05-05T16:45:50.021Z,15.87
2023-05-05T16:48:20.272Z,15.83
2023-05-05T16:50:50.569Z,15.81
2023-05-05T16:53:20.789Z,15.80
2023-05-05T16:55:53.486Z,15.81
2023-05-05T16:58:22.356Z,15.83
2023-05-05T17:00:52.948Z,15.86
2023-05-05T17:03:23.799Z,15.88
2023-05-05T17:05:55.099Z,15.88
2023-05-05T17:08:25.558Z,15.85
2023-05-05T17:10:56.014Z,15.82
2023-05-05T17:13:26.300Z,15.81
2023-05-05T17:15:56.548Z,15.79
2023-05-05T17:18:26.820Z,15.78
2023-05-05T17:20:57.124Z,15.75
2023-05-05T17:23:27.624Z,15.74
2023-05-05T17:25:59.495Z,15.68
2023-05-05T17:28:30.124Z,15.68
2023-05-05T17:31:01.591Z,15.62
2023-05-05T17:33:31.834Z,15.56
2023-05-05T17:36:02.174Z,15.50
2023-05-05T17:38:32.470Z,15.44
2023-05-05T17:41:03.092Z,15.39
2023-05-05T17:43:33.395Z,15.34
2023-05-05T17:46:03.790Z,15.32
2023-05-05T17:48:34.689Z,15.31
2023-05-05T17:51:05.285Z,15.36
2023-05-05T17:53:35.636Z,15.37
2023-05-05T17:56:08.725Z,15.39
2023-05-05T17:58:39.423Z,15.40
2023-05-05T18:01:13.425Z,15.43
2023-05-05T18:03:43.794Z,15.45
2023-05-05T18:06:14.218Z,15.46
2023-05-05T18:08:44.814Z,15.46
2023-05-05T18:11:15.406Z,15.48
2023-05-05T18:13:46.128Z,15.50
2023-05-05T18:16:16.424Z,15.52
2023-05-05T18:18:46.643Z,15.52
2023-05-05T18:21:17.018Z,15.50
2023-05-05T18:23:47.302Z,15.46
2023-05-05T18:26:17.621Z,15.43
2023-05-05T18:28:47.993Z,15.37
2023-05-05T18:31:18.249Z,15.32
2023-05-05T18:33:48.547Z,15.27
2023-05-05T18:36:19.333Z,15.21
2023-05-05T18:38:49.882Z,15.17
2023-05-05T18:41:20.347Z,15.08
2023-05-05T18:43:51.032Z,15.09
2023-05-05T18:46:22.428Z,15.07
2023-05-05T18:48:53.154Z,15.04
2023-05-05T18:51:23.432Z,15.01
2023-05-05T18:53:53.797Z,14.97
2023-05-05T18:56:24.113Z,14.91
2023-05-05T18:58:54.495Z,14.85
2023-05-05T19:01:25.444Z,14.82
2023-05-05T19:03:56.101Z,14.79
2023-05-05T19:06:27.272Z,14.79
2023-05-05T19:08:57.657Z,14.78
2023-05-05T19:11:28.310Z,14.74
2023-05-05T19:13:58.537Z,14.74
2023-05-05T19:16:30.119Z,14.69
2023-05-05T19:19:00.907Z,14.63
2023-05-05T19:21:31.667Z,14.57
2023-05-05T19:24:01.964Z,14.50
2023-05-05T19:26:32.854Z,14.43
2023-05-05T19:29:03.451Z,14.37
2023-05-05T19:31:34.313Z,14.30
2023-05-05T19:34:05.982Z,14.23
2023-05-05T19:36:36.674Z,14.17
2023-05-05T19:39:08.205Z,14.11
2023-05-05T19:41:38.624Z,14.06
2023-05-05T19:44:09.058Z,14.00
2023-05-05T19:46:39.471Z,13.95
2023-05-05T19:49:10.525Z,13.92
2023-05-05T19:51:42.078Z,13.85
2023-05-05T19:54:12.342Z,13.85
2023-05-05T19:56:42.690Z,13.79
2023-05-05T19:59:13.047Z,13.73
2023-05-05T20:01:43.380Z,13.66
2023-05-05T20:04:14.104Z,13.59
2023-05-05T20:06:44.408Z,13.54
2023-05-05T20:09:15.054Z,13.47
2023-05-05T20:11:45.416Z,13.42
2023-05-05T20:14:15.747Z,13.38
2023-05-05T20:16:46.020Z,13.34
2023-05-05T20:19:16.370Z,13.38
2023-05-05T20:21:46.533Z,13.38
2023-05-05T20:24:18.013Z,13.35
2023-05-05T20:26:48.344Z,13.36
2023-05-05T20:29:19.796Z,13.38
2023-05-05T20:31:50.323Z,13.37
2023-05-05T20:34:21.003Z,13.35
2023-05-05T20:36:52.571Z,13.33
2023-05-05T20:39:22.832Z,13.32
2023-05-05T20:41:53.051Z,13.30
2023-05-05T20:44:23.300Z,13.31
2023-05-05T20:46:53.681Z,13.34
2023-05-05T20:49:24.419Z,13.35
2023-05-05T20:51:54.722Z,13.35
2023-05-05T20:54:24.854Z,13.34
2023-05-05T20:56:58.200Z,13.33
2023-05-05T20:59:28.838Z,13.32
2023-05-05T21:02:00.049Z,13.29
2023-05-05T21:04:30.289Z,13.27
2023-05-05T21:07:00.588Z,13.25
2023-05-05T21:09:31.386Z,13.25
2023-05-05T21:12:02.098Z,13.23
2023-05-05T21:14:32.341Z,13.19
2023-05-05T21:17:02.676Z,13.21
2023-05-05T21:19:32.924Z,13.20
2023-05-05T21:22:03.171Z,13.20
2023-05-05T21:24:33.303Z,13.20
2023-05-05T21:27:03.497Z,13.22
2023-05-05T21:29:37.456Z,13.26
2023-05-05T21:32:08.250Z,13.28
2023-05-05T21:34:39.055Z,13.29
2023-05-05T21:37:09.363Z,13.29
2023-05-05T21:39:39.745Z,13.28
2023-05-05T21:42:10.040Z,13.26
2023-05-05T21:44:40.344Z,13.23
2023-05-05T21:47:11.940Z,13.20
2023-05-05T21:49:42.235Z,13.16
2023-05-05T21:52:12.452Z,13.14
2023-05-05T21:54:42.588Z,13.11
2023-05-05T21:57:13.576Z,13.08
2023-05-05T21:59:43.831Z,13.02
2023-05-05T22:02:14.000Z,12.98
2023-05-05T22:04:48.972Z,12.92
2023-05-05T22:07:33.005Z,12.92
2023-05-05T22:10:03.737Z,12.92
2023-05-05T22:12:34.273Z,12.90
2023-05-05T22:15:05.307Z,12.86
2023-05-05T22:17:36.100Z,12.90
2023-05-05T22:20:09.724Z,12.94
2023-05-05T22:22:40.646Z,12.96
2023-05-05T22:25:12.133Z,12.95
2023-05-05T22:27:42.849Z,12.93
2023-05-05T22:30:14.930Z,12.91
2023-05-05T22:32:46.276Z,12.87
2023-05-05T22:35:16.660Z,12.80
2023-05-05T22:37:46.881Z,12.76
2023-05-05T22:40:17.325Z,12.73
2023-05-05T22:42:47.623Z,12.71
2023-05-05T22:45:17.934Z,12.69
2023-05-05T22:47:48.200Z,12.67
2023-05-05T22:50:18.805Z,12.64
2023-05-05T22:52:49.063Z,12.60
2023-05-05T22:55:20.263Z,12.57
2023-05-05T22:57:52.611Z,12.55
2023-05-05T23:00:23.083Z,12.55
2023-05-05T23:02:53.384Z,12.53
2023-05-05T23:05:24.513Z,12.53
2023-05-05T23:07:54.812Z,12.54
2023-05-05T23:10:24.977Z,12.54
2023-05-05T23:12:55.377Z,12.54
2023-05-05T23:15:25.907Z,12.53
2023-05-05T23:17:56.148Z,12.52
2023-05-05T23:20:26.710Z,12.51
2023-05-05T23:22:57.531Z,12.49
2023-05-05T23:25:27.974Z,12.48
2023-05-05T23:27:58.931Z,12.47
2023-05-05T23:30:29.329Z,12.46
2023-05-05T23:33:01.038Z,12.41
2023-05-05T23:35:31.406Z,12.35
2023-05-05T23:38:01.901Z,12.29
2023-05-05T23:40:32.096Z,12.21
2023-05-05T23:43:02.472Z,12.16
2023-05-05T23:45:32.759Z,12.13
2023-05-05T23:48:03.027Z,12.11
2023-05-05T23:50:33.258Z,12.10
2023-05-05T23:53:03.494Z,12.09
2023-05-05T23:55:33.699Z,12.07
2023-05-05T23:58:03.823Z,12.06
